Time;durP1;ratioP1;P1;durP2;ratioP2;P2;SDS_P1;SDS_P2;PMS_P1;PMS_P2;Temp;Humidity;BMP_temperature;BMP_pressure;BME280_temperature;BME280_humidity;BME280_pressure;Samples;Min_cycle;Max_cycle;Signal;HPM_P1;HPM_P2
2021/09/18 00:06:29;;;;;;;1.70;0.60;;;21.70;99.90;;;;;;21066787;22;20236;-67
2021/09/18 00:16:34;;;;;;;0.50;0.50;;;21.60;99.90;;;;;;21027783;28;20220;-68
2021/09/18 00:26:38;;;;;;;0.80;0.37;;;21.60;99.90;;;;;;21028150;28;20199;-67
2021/09/18 00:36:43;;;;;;;0.70;0.67;;;21.70;99.90;;;;;;21028890;28;20226;-68
2021/09/18 00:46:48;;;;;;;1.07;0.63;;;21.60;99.90;;;;;;21025919;28;20200;-67
2021/09/18 00:56:54;;;;;;;0.23;0.23;;;21.40;99.90;;;;;;21027812;28;20230;-67
2021/09/18 01:06:58;;;;;;;0.20;0.20;;;21.40;99.90;;;;;;21037080;22;20239;-73
2021/09/18 01:17:03;;;;;;;4.90;0.77;;;21.30;99.90;;;;;;21026158;28;20404;-72
2021/09/18 01:27:08;;;;;;;0.73;0.50;;;21.30;99.90;;;;;;21023157;28;20195;-72
2021/09/18 01:37:12;;;;;;;0.37;0.20;;;21.40;99.90;;;;;;21024754;28;20488;-71
2021/09/18 01:47:17;;;;;;;0.37;0.17;;;21.30;99.90;;;;;;21023263;28;20653;-72
2021/09/18 01:57:20;;;;;;;0.97;0.87;;;21.30;99.90;;;;;;21005213;28;20346;-71
2021/09/18 02:07:25;;;;;;;0.33;0.23;;;21.30;99.90;;;;;;21023927;28;20643;-72
2021/09/18 02:17:29;;;;;;;0.20;0.13;;;21.30;99.90;;;;;;21022751;28;20224;-72
2021/09/18 02:27:34;;;;;;;0.73;0.50;;;21.20;99.90;;;;;;20942843;28;20189;-72
2021/09/18 02:37:39;;;;;;;1.27;0.43;;;21.30;99.90;;;;;;20944992;28;20305;-73
2021/09/18 02:47:44;;;;;;;0.30;0.30;;;21.20;99.90;;;;;;20953126;28;20658;-72
2021/09/18 02:57:47;;;;;;;0.30;0.30;;;21.10;99.90;;;;;;20951470;28;20571;-74
2021/09/18 03:07:52;;;;;;;0.63;0.63;;;21.10;99.90;;;;;;21022543;28;20224;-74
2021/09/18 03:17:57;;;;;;;0.90;0.40;;;21.30;99.90;;;;;;21034654;28;20226;-72
2021/09/18 03:28:02;;;;;;;3.60;0.40;;;21.30;99.90;;;;;;21033188;28;20567;-73
2021/09/18 03:38:06;;;;;;;0.80;0.67;;;21.20;99.90;;;;;;21032139;28;20567;-74
2021/09/18 03:48:11;;;;;;;0.30;0.30;;;20.90;99.90;;;;;;21030457;28;20466;-72
2021/09/18 03:58:14;;;;;;;0.50;0.50;;;20.90;99.90;;;;;;21029545;28;20228;-72
2021/09/18 04:08:19;;;;;;;0.67;0.40;;;21.00;99.90;;;;;;20955835;28;20235;-73
2021/09/18 04:18:23;;;;;;;0.40;0.40;;;21.00;99.90;;;;;;20944356;28;20224;-73
2021/09/18 04:28:28;;;;;;;4.80;1.10;;;21.10;99.90;;;;;;20945558;28;20209;-74
2021/09/18 04:38:32;;;;;;;0.50;0.40;;;21.10;99.90;;;;;;20944966;28;20579;-72
2021/09/18 04:48:37;;;;;;;0.73;0.50;;;21.10;99.90;;;;;;20924759;28;20197;-72
2021/09/18 04:58:41;;;;;;;1.20;0.97;;;21.20;99.90;;;;;;20940979;28;20572;-72
2021/09/18 05:08:45;;;;;;;0.30;0.30;;;21.20;99.90;;;;;;20924728;28;20232;-73
2021/09/18 05:18:49;;;;;;;0.70;0.60;;;21.30;99.90;;;;;;20940756;28;20641;-73
2021/09/18 05:28:54;;;;;;;0.63;0.33;;;21.30;99.90;;;;;;20940694;28;20203;-72
2021/09/18 05:38:58;;;;;;;0.30;0.30;;;21.30;99.90;;;;;;20937786;28;20217;-73
2021/09/18 05:49:03;;;;;;;0.80;0.80;;;21.30;99.90;;;;;;20942915;28;20201;-72
2021/09/18 05:59:07;;;;;;;3.60;1.10;;;21.40;99.90;;;;;;20920673;28;20231;-73
2021/09/18 06:09:15;;;;;;;0.93;0.63;;;21.70;99.90;;;;;;21021582;28;20369;-72
2021/09/18 06:19:19;;;;;;;1.00;0.97;;;21.70;99.90;;;;;;21033283;28;20223;-72
2021/09/18 06:29:26;;;;;;;0.50;0.50;;;22.00;99.90;;;;;;21036507;28;20196;-72
2021/09/18 06:39:31;;;;;;;14.07;0.97;;;22.30;99.90;;;;;;21038190;28;20505;-72
2021/09/18 06:49:36;;;;;;;0.47;0.47;;;22.60;99.90;;;;;;21034438;28;20275;-74
2021/09/18 06:59:41;;;;;;;0.73;0.20;;;22.80;99.90;;;;;;21032381;28;20688;-72
2021/09/18 07:09:46;;;;;;;1.92;1.50;;;23.40;99.90;;;;;;20948175;28;20207;-71
2021/09/18 07:19:50;;;;;;;4.13;0.30;;;23.80;99.90;;;;;;20958251;28;20300;-71
2021/09/18 07:29:57;;;;;;;0.65;0.50;;;24.20;99.90;;;;;;21030966;28;20203;-74
2021/09/18 07:40:01;;;;;;;0.63;0.63;;;24.40;99.90;;;;;;21028938;28;20223;-71
2021/09/18 07:50:08;;;;;;;1.55;1.05;;;24.40;99.90;;;;;;21012918;28;20916;-73
2021/09/18 08:00:12;;;;;;;1.45;1.08;;;24.80;99.90;;;;;;21027002;28;20231;-71
2021/09/18 08:10:17;;;;;;;0.65;0.65;;;25.30;99.90;;;;;;21026765;28;20249;-72
2021/09/18 08:20:21;;;;;;;0.30;0.30;;;25.00;99.90;;;;;;21007608;28;20365;-72
2021/09/18 08:30:27;;;;;;;0.90;0.88;;;24.60;99.90;;;;;;20944531;28;20286;-71
2021/09/18 08:40:37;;;;;;;1.38;0.95;;;24.60;99.90;;;;;;20982969;28;20220;-71
2021/09/18 08:50:42;;;;;;;0.75;0.75;;;24.30;99.90;;;;;;21022939;28;20217;-71
2021/09/18 09:00:49;;;;;;;0.57;0.35;;;24.30;99.90;;;;;;21023484;28;20514;-71
2021/09/18 09:10:55;;;;;;;7.88;1.35;;;24.20;99.90;;;;;;21022769;28;20196;-71
2021/09/18 09:21:13;;;;;;;0.30;0.20;;;24.90;99.90;;;;;;21023602;28;20216;-71
2021/09/18 09:31:23;;;;;;;1.17;1.08;;;25.30;99.90;;;;;;21022185;28;20219;-70
2021/09/18 09:41:33;;;;;;;0.65;0.43;;;25.90;99.90;;;;;;21022560;28;20698;-75
2021/09/18 09:51:38;;;;;;;0.50;0.50;;;25.80;99.90;;;;;;21034046;28;20236;-73
2021/09/18 10:01:42;;;;;;;0.55;0.55;;;26.40;99.90;;;;;;21039423;28;20646;-72
2021/09/18 10:11:47;;;;;;;1.55;0.65;;;27.00;99.90;;;;;;21017837;28;20547;-72
2021/09/18 10:32:14;;;;;;;0.40;0.40;;;26.60;99.90;;;;;;21036520;28;20520;-73
2021/09/18 10:42:34;;;;;;;0.73;0.70;;;27.10;99.90;;;;;;21034285;28;20215;-71
2021/09/18 10:52:40;;;;;;;1.25;1.05;;;26.30;99.90;;;;;;21014750;28;20200;-71
2021/09/18 11:02:48;;;;;;;1.95;1.50;;;27.60;99.90;;;;;;21032206;28;20224;-76
2021/09/18 11:13:22;;;;;;;0.88;0.32;;;29.40;99.90;;;;;;21033772;28;20686;-73
2021/09/18 11:23:34;;;;;;;0.35;0.30;;;29.60;99.90;;;;;;21014474;28;20219;-77
2021/09/18 11:33:39;;;;;;;0.63;0.55;;;28.80;99.90;;;;;;21031809;28;20200;-78
2021/09/18 11:43:43;;;;;;;0.60;0.38;;;27.30;99.90;;;;;;21031018;28;20220;-75
2021/09/18 11:53:58;;;;;;;0.85;0.65;;;26.50;99.90;;;;;;21026633;28;20196;-73
2021/09/18 12:04:02;;;;;;;0.30;0.30;;;27.00;99.90;;;;;;21029744;28;20580;-73
2021/09/18 12:14:07;;;;;;;6.70;1.00;;;27.00;99.90;;;;;;21026970;28;20189;-74
2021/09/18 12:24:11;;;;;;;0.85;0.63;;;26.60;99.90;;;;;;21027982;28;20303;-73
2021/09/18 12:34:19;;;;;;;5.53;1.65;;;25.90;99.90;;;;;;21027597;28;20200;-79
2021/09/18 12:44:33;;;;;;;0.93;0.50;;;25.30;99.90;;;;;;21026905;28;20228;-74
2021/09/18 12:54:45;;;;;;;1.20;0.90;;;25.00;99.90;;;;;;21006341;28;20203;-73
2021/09/18 13:04:48;;;;;;;1.92;1.00;;;24.70;99.90;;;;;;21006339;28;20677;-72
2021/09/18 13:14:55;;;;;;;0.35;0.35;;;24.30;99.90;;;;;;21022927;28;20192;-75
2021/09/18 13:25:00;;;;;;;16.00;0.68;;;24.10;99.90;;;;;;21023254;28;20228;-75
2021/09/18 13:35:07;;;;;;;0.50;0.30;;;24.00;99.90;;;;;;21024115;28;20200;-76
2021/09/18 13:45:11;;;;;;;0.50;0.25;;;23.60;99.90;;;;;;21026717;28;20641;-76
2021/09/18 13:55:16;;;;;;;0.55;0.52;;;23.40;99.90;;;;;;21022717;28;20265;-74
2021/09/18 14:05:25;;;;;;;2.05;1.05;;;23.20;99.90;;;;;;20969782;28;20232;-75
2021/09/18 14:15:31;;;;;;;2.95;0.75;;;23.00;99.90;;;;;;20940163;28;20189;-76
2021/09/18 14:25:35;;;;;;;0.43;0.43;;;23.10;99.90;;;;;;20919339;28;20224;-75
2021/09/18 14:35:39;;;;;;;1.45;0.70;;;23.10;99.90;;;;;;20949107;28;20554;-76
2021/09/18 14:45:44;;;;;;;1.08;0.88;;;23.20;99.90;;;;;;20933718;28;20225;-79
2021/09/18 14:55:49;;;;;;;0.70;0.47;;;23.10;99.90;;;;;;20952488;28;20273;-76
2021/09/18 15:05:52;;;;;;;0.47;0.47;;;23.00;99.90;;;;;;20948056;28;20270;-76
2021/09/18 15:15:58;;;;;;;1.40;0.52;;;22.90;99.90;;;;;;20950414;28;20752;-73
2021/09/18 15:26:02;;;;;;;0.47;0.40;;;23.00;99.90;;;;;;20948038;28;20224;-75
2021/09/18 15:36:07;;;;;;;0.57;0.57;;;22.90;99.90;;;;;;20946852;28;20200;-74
2021/09/18 15:46:11;;;;;;;0.55;0.55;;;22.90;99.90;;;;;;20947077;28;20228;-74
2021/09/18 15:56:16;;;;;;;2.33;0.65;;;22.90;99.90;;;;;;20947320;28;20196;-74
2021/09/18 16:06:19;;;;;;;1.45;0.73;;;22.90;99.90;;;;;;21003067;28;20236;-73
2021/09/18 16:16:24;;;;;;;0.75;0.20;;;22.70;99.90;;;;;;21028512;28;20200;-73
2021/09/18 16:26:28;;;;;;;0.25;0.17;;;23.00;99.90;;;;;;21027500;28;20701;-72
2021/09/18 16:36:33;;;;;;;0.20;0.00;;;23.10;99.90;;;;;;21027633;28;20341;-74
2021/09/18 16:46:37;;;;;;;0.40;0.38;;;23.00;99.90;;;;;;21027454;28;20711;-74
2021/09/18 16:56:42;;;;;;;0.60;0.17;;;22.80;99.90;;;;;;21024543;28;20199;-73
2021/09/18 17:06:47;;;;;;;0.20;0.10;;;22.80;99.90;;;;;;20961201;28;20240;-73
2021/09/18 17:16:52;;;;;;;0.20;0.15;;;22.90;99.90;;;;;;20936790;28;20671;-74
2021/09/18 17:26:56;;;;;;;3.47;1.00;;;22.90;99.90;;;;;;20995737;28;20231;-72
2021/09/18 17:37:01;;;;;;;0.22;0.17;;;23.00;99.90;;;;;;21022649;28;20207;-71
2021/09/18 17:47:04;;;;;;;0.30;0.25;;;22.80;99.90;;;;;;21004648;28;20474;-72
2021/09/18 17:57:09;;;;;;;0.30;0.28;;;22.80;99.90;;;;;;21002200;28;20191;-72
2021/09/18 18:07:13;;;;;;;0.35;0.25;;;22.80;99.90;;;;;;21027049;28;20235;-72
2021/09/18 18:17:18;;;;;;;0.63;0.57;;;22.80;99.90;;;;;;21035404;28;20203;-72
2021/09/18 18:27:22;;;;;;;2.22;0.63;;;22.50;99.90;;;;;;20941797;28;20221;-72
2021/09/18 18:37:27;;;;;;;8.97;1.07;;;22.50;99.90;;;;;;20932356;28;20306;-72
2021/09/18 18:47:31;;;;;;;0.20;0.10;;;22.30;99.90;;;;;;20952040;28;20547;-72
2021/09/18 18:57:37;;;;;;;0.20;0.20;;;22.30;99.90;;;;;;20949975;28;20196;-72
2021/09/18 19:07:42;;;;;;;0.20;0.10;;;22.30;99.90;;;;;;21020680;28;20397;-71
2021/09/18 19:17:47;;;;;;;0.55;0.28;;;22.40;99.90;;;;;;21034449;28;20192;-71
2021/09/18 19:27:51;;;;;;;0.20;0.10;;;22.50;99.90;;;;;;21029990;28;20220;-72
2021/09/18 19:37:57;;;;;;;0.20;0.20;;;22.40;99.90;;;;;;21031592;28;20680;-71
2021/09/18 19:48:00;;;;;;;1.17;0.70;;;22.20;99.90;;;;;;21031105;28;20770;-75
2021/09/18 19:58:05;;;;;;;0.43;0.37;;;22.20;99.90;;;;;;21032386;28;20338;-73
2021/09/18 20:08:10;;;;;;;0.20;0.10;;;21.80;99.90;;;;;;21010183;28;20243;-75
2021/09/18 20:18:15;;;;;;;2.63;0.67;;;21.90;99.90;;;;;;21029166;28;20627;-74
2021/09/18 20:28:19;;;;;;;0.20;0.10;;;21.50;99.90;;;;;;21026050;28;20333;-75
2021/09/18 20:38:24;;;;;;;0.40;0.40;;;21.50;99.90;;;;;;21029512;28;20764;-74
2021/09/18 20:48:28;;;;;;;4.23;0.83;;;21.40;99.90;;;;;;21026119;28;20234;-73
2021/09/18 20:58:33;;;;;;;0.30;0.10;;;21.40;99.90;;;;;;21027230;28;20204;-73
2021/09/18 21:08:36;;;;;;;0.33;0.33;;;21.40;99.90;;;;;;21025110;28;20232;-73
2021/09/18 21:18:42;;;;;;;3.17;0.80;;;21.60;99.90;;;;;;21023755;28;20492;-77
2021/09/18 21:28:45;;;;;;;0.30;0.10;;;21.60;99.90;;;;;;21006103;28;20238;-76
2021/09/18 21:38:50;;;;;;;0.53;0.53;;;21.70;99.90;;;;;;21025736;28;20196;-74
2021/09/18 21:48:54;;;;;;;0.53;0.30;;;21.70;99.90;;;;;;21051734;28;20228;-72
2021/09/18 21:58:59;;;;;;;0.47;0.47;;;21.60;99.90;;;;;;21051173;28;20597;-72
2021/09/18 22:09:04;;;;;;;0.20;0.00;;;21.60;99.90;;;;;;21052424;28;20627;-72
2021/09/18 22:19:09;;;;;;;1.37;1.20;;;21.60;99.90;;;;;;21040355;28;20196;-72
2021/09/18 22:29:12;;;;;;;0.70;0.63;;;21.40;99.90;;;;;;20951552;28;20220;-73
2021/09/18 22:39:17;;;;;;;2.87;0.40;;;21.50;99.90;;;;;;20947162;28;20206;-71
2021/09/18 22:49:21;;;;;;;0.30;0.20;;;21.40;99.90;;;;;;20966342;28;20473;-71
2021/09/18 22:59:26;;;;;;;0.27;0.27;;;21.50;99.90;;;;;;20951132;28;20204;-72
2021/09/18 23:09:30;;;;;;;0.37;0.33;;;21.30;99.90;;;;;;20951724;28;20224;-69
2021/09/18 23:19:36;;;;;;;0.20;0.20;;;21.40;99.90;;;;;;20961811;28;20196;-72
2021/09/18 23:29:40;;;;;;;2.10;0.83;;;21.40;99.90;;;;;;21034912;28;20425;-71
2021/09/18 23:39:44;;;;;;;0.97;0.47;;;21.50;99.90;;;;;;21031020;28;20203;-72
2021/09/18 23:49:48;;;;;;;0.43;0.43;;;21.40;99.90;;;;;;21015736;28;20232;-71
2021/09/18 23:59:53;;;;;;;10.40;0.97;;;21.50;99.90;;;;;;21027110;28;20240;-71
